sensor_id;sensor_type;location;lat;lon;timestamp;pressure;altitude;pressure_sealevel;temperature;humidity
75359;BME280;64046;51.978;5.934;2024-03-02T00:01:32;99805.03;;;13.66;53.77
75359;BME280;64046;51.978;5.934;2024-03-02T00:04:03;99796.13;;;13.80;53.73
75359;BME280;64046;51.978;5.934;2024-03-02T00:06:34;99792.31;;;13.84;53.71
75359;BME280;64046;51.978;5.934;2024-03-02T00:09:09;99794.13;;;13.95;53.44
75359;BME280;64046;51.978;5.934;2024-03-02T00:11:40;99787.72;;;13.75;53.75
75359;BME280;64046;51.978;5.934;2024-03-02T00:14:10;99793.00;;;13.75;53.83
75359;BME280;64046;51.978;5.934;2024-03-02T00:16:40;99795.28;;;13.79;53.83
75359;BME280;64046;51.978;5.934;2024-03-02T00:19:10;99784.38;;;13.73;53.93
75359;BME280;64046;51.978;5.934;2024-03-02T00:21:40;99791.31;;;13.74;53.92
75359;BME280;64046;51.978;5.934;2024-03-02T00:24:19;99778.44;;;13.93;53.58
75359;BME280;64046;51.978;5.934;2024-03-02T00:26:50;99786.50;;;13.67;54.12
75359;BME280;64046;51.978;5.934;2024-03-02T00:29:17;99794.91;;;13.73;54.20
75359;BME280;64046;51.978;5.934;2024-03-02T00:31:47;99786.72;;;13.64;54.32
75359;BME280;64046;51.978;5.934;2024-03-02T00:34:17;99785.69;;;13.67;54.38
75359;BME280;64046;51.978;5.934;2024-03-02T00:36:46;99782.28;;;13.65;54.43
75359;BME280;64046;51.978;5.934;2024-03-02T00:39:19;99782.00;;;13.81;54.20
75359;BME280;64046;51.978;5.934;2024-03-02T00:41:48;99778.84;;;13.64;54.38
75359;BME280;64046;51.978;5.934;2024-03-02T00:44:22;99778.91;;;13.87;54.06
75359;BME280;64046;51.978;5.934;2024-03-02T00:46:58;99775.91;;;13.80;54.22
75359;BME280;64046;51.978;5.934;2024-03-02T00:49:29;99789.13;;;13.67;54.29
75359;BME280;64046;51.978;5.934;2024-03-02T00:51:59;99800.38;;;13.70;54.31
75359;BME280;64046;51.978;5.934;2024-03-02T00:54:31;99786.94;;;13.86;54.16
75359;BME280;64046;51.978;5.934;2024-03-02T00:57:00;99791.53;;;13.71;54.50
75359;BME280;64046;51.978;5.934;2024-03-02T00:59:29;99793.34;;;13.70;54.43
75359;BME280;64046;51.978;5.934;2024-03-02T01:01:59;99799.78;;;13.66;54.47
75359;BME280;64046;51.978;5.934;2024-03-02T01:04:28;99806.22;;;13.62;54.53
75359;BME280;64046;51.978;5.934;2024-03-02T01:06:57;99809.56;;;13.64;54.69
75359;BME280;64046;51.978;5.934;2024-03-02T01:09:30;99821.66;;;13.66;54.54
75359;BME280;64046;51.978;5.934;2024-03-02T01:11:59;99818.91;;;13.68;54.62
75359;BME280;64046;51.978;5.934;2024-03-02T01:14:28;99819.66;;;13.70;54.80
75359;BME280;64046;51.978;5.934;2024-03-02T01:16:58;99828.72;;;13.66;54.97
75359;BME280;64046;51.978;5.934;2024-03-02T01:19:29;99827.44;;;13.72;54.78
75359;BME280;64046;51.978;5.934;2024-03-02T01:21:59;99852.09;;;13.71;55.05
75359;BME280;64046;51.978;5.934;2024-03-02T01:24:32;99856.22;;;13.86;55.03
75359;BME280;64046;51.978;5.934;2024-03-02T01:27:02;99866.41;;;13.66;55.55
75359;BME280;64046;51.978;5.934;2024-03-02T01:29:32;99870.03;;;13.65;55.65
75359;BME280;64046;51.978;5.934;2024-03-02T01:32:01;99877.19;;;13.63;55.84
75359;BME280;64046;51.978;5.934;2024-03-02T01:34:30;99871.81;;;13.65;55.86
75359;BME280;64046;51.978;5.934;2024-03-02T01:36:59;99873.78;;;13.74;55.67
75359;BME280;64046;51.978;5.934;2024-03-02T01:39:31;99875.97;;;13.80;55.83
75359;BME280;64046;51.978;5.934;2024-03-02T01:42:01;99881.63;;;13.87;55.85
75359;BME280;64046;51.978;5.934;2024-03-02T01:44:30;99883.78;;;13.93;55.90
75359;BME280;64046;51.978;5.934;2024-03-02T01:47:00;99880.09;;;13.96;55.94
75359;BME280;64046;51.978;5.934;2024-03-02T01:49:29;99882.00;;;13.94;56.58
75359;BME280;64046;51.978;5.934;2024-03-02T01:52:00;99870.50;;;13.95;57.02
75359;BME280;64046;51.978;5.934;2024-03-02T01:54:32;99857.16;;;14.09;57.39
75359;BME280;64046;51.978;5.934;2024-03-02T01:57:01;99860.09;;;13.93;57.84
75359;BME280;64046;51.978;5.934;2024-03-02T01:59:31;99853.03;;;13.94;58.17
75359;BME280;64046;51.978;5.934;2024-03-02T02:02:00;99851.78;;;13.87;58.57
75359;BME280;64046;51.978;5.934;2024-03-02T02:04:29;99846.75;;;13.83;58.89
75359;BME280;64046;51.978;5.934;2024-03-02T02:06:59;99840.44;;;13.86;59.29
75359;BME280;64046;51.978;5.934;2024-03-02T02:09:28;99834.78;;;13.79;59.78
75359;BME280;64046;51.978;5.934;2024-03-02T02:12:00;99832.06;;;13.92;60.08
75359;BME280;64046;51.978;5.934;2024-03-02T02:14:32;99826.63;;;13.71;60.54
75359;BME280;64046;51.978;5.934;2024-03-02T02:17:02;99839.50;;;13.63;60.99
75359;BME280;64046;51.978;5.934;2024-03-02T02:19:31;99845.81;;;13.60;61.42
75359;BME280;64046;51.978;5.934;2024-03-02T02:22:04;99834.06;;;13.77;61.41
75359;BME280;64046;51.978;5.934;2024-03-02T02:24:33;99828.00;;;13.64;61.89
75359;BME280;64046;51.978;5.934;2024-03-02T02:27:02;99837.22;;;13.70;61.85
75359;BME280;64046;51.978;5.934;2024-03-02T02:29:32;99841.78;;;13.67;61.97
75359;BME280;64046;51.978;5.934;2024-03-02T02:32:01;99830.19;;;13.70;62.07
75359;BME280;64046;51.978;5.934;2024-03-02T02:34:31;99827.09;;;13.76;62.05
75359;BME280;64046;51.978;5.934;2024-03-02T02:37:03;99829.56;;;13.91;61.99
75359;BME280;64046;51.978;5.934;2024-03-02T02:39:32;99830.19;;;13.70;62.40
75359;BME280;64046;51.978;5.934;2024-03-02T02:42:02;99831.38;;;13.66;62.46
75359;BME280;64046;51.978;5.934;2024-03-02T02:44:31;99828.72;;;13.66;62.43
75359;BME280;64046;51.978;5.934;2024-03-02T02:47:01;99842.63;;;13.68;62.20
75359;BME280;64046;51.978;5.934;2024-03-02T02:49:31;99842.34;;;13.84;61.82
75359;BME280;64046;51.978;5.934;2024-03-02T02:52:03;99839.81;;;13.82;61.89
75359;BME280;64046;51.978;5.934;2024-03-02T02:54:33;99828.22;;;13.61;62.22
75359;BME280;64046;51.978;5.934;2024-03-02T02:57:02;99834.22;;;13.63;62.36
75359;BME280;64046;51.978;5.934;2024-03-02T02:59:32;99835.75;;;13.54;62.65
75359;BME280;64046;51.978;5.934;2024-03-02T03:02:01;99833.66;;;13.46;63.17
75359;BME280;64046;51.978;5.934;2024-03-02T03:04:30;99824.81;;;13.47;63.34
75359;BME280;64046;51.978;5.934;2024-03-02T03:06:59;99830.78;;;13.49;63.37
75359;BME280;64046;51.978;5.934;2024-03-02T03:09:32;99831.38;;;13.66;63.20
75359;BME280;64046;51.978;5.934;2024-03-02T03:12:01;99831.00;;;13.46;63.64
75359;BME280;64046;51.978;5.934;2024-03-02T03:14:30;99834.41;;;13.48;63.43
75359;BME280;64046;51.978;5.934;2024-03-02T03:17:00;99839.78;;;13.47;63.23
75359;BME280;64046;51.978;5.934;2024-03-02T03:19:29;99837.63;;;13.52;62.95
75359;BME280;64046;51.978;5.934;2024-03-02T03:21:59;99828.16;;;13.49;62.55
75359;BME280;64046;51.978;5.934;2024-03-02T03:24:32;99835.06;;;13.63;62.49
75359;BME280;64046;51.978;5.934;2024-03-02T03:27:01;99839.13;;;13.43;62.66
75359;BME280;64046;51.978;5.934;2024-03-02T03:29:31;99846.91;;;13.45;62.86
75359;BME280;64046;51.978;5.934;2024-03-02T03:32:01;99842.59;;;13.44;62.95
75359;BME280;64046;51.978;5.934;2024-03-02T03:34:32;99849.50;;;13.58;62.93
75359;BME280;64046;51.978;5.934;2024-03-02T03:37:02;99852.81;;;13.48;63.05
75359;BME280;64046;51.978;5.934;2024-03-02T03:39:34;99858.16;;;13.60;62.85
75359;BME280;64046;51.978;5.934;2024-03-02T03:42:05;99865.97;;;13.48;63.37
75359;BME280;64046;51.978;5.934;2024-03-02T03:44:34;99858.38;;;13.44;63.30
75359;BME280;64046;51.978;5.934;2024-03-02T03:47:06;99868.59;;;13.48;63.56
75359;BME280;64046;51.978;5.934;2024-03-02T03:49:35;99857.56;;;13.43;63.69
75359;BME280;64046;51.978;5.934;2024-03-02T03:52:05;99858.38;;;13.44;63.93
75359;BME280;64046;51.978;5.934;2024-03-02T03:54:37;99862.91;;;13.55;63.99
75359;BME280;64046;51.978;5.934;2024-03-02T03:57:06;99873.03;;;13.35;64.57
75359;BME280;64046;51.978;5.934;2024-03-02T03:59:36;99869.47;;;13.36;64.61
75359;BME280;64046;51.978;5.934;2024-03-02T04:02:05;99874.72;;;13.36;64.79
75359;BME280;64046;51.978;5.934;2024-03-02T04:04:35;99851.47;;;13.43;64.83
75359;BME280;64046;51.978;5.934;2024-03-02T04:07:04;99867.59;;;13.38;65.10
75359;BME280;64046;51.978;5.934;2024-03-02T04:09:36;99862.19;;;13.53;65.19
75359;BME280;64046;51.978;5.934;2024-03-02T04:12:06;99882.63;;;13.36;65.59
75359;BME280;64046;51.978;5.934;2024-03-02T04:14:35;99899.66;;;13.30;65.79
75359;BME280;64046;51.978;5.934;2024-03-02T04:17:05;99901.47;;;13.30;65.72
75359;BME280;64046;51.978;5.934;2024-03-02T04:19:34;99886.00;;;13.25;65.92
75359;BME280;64046;51.978;5.934;2024-03-02T04:22:04;99875.97;;;13.30;65.85
75359;BME280;64046;51.978;5.934;2024-03-02T04:24:36;99872.84;;;13.25;65.82
75359;BME280;64046;51.978;5.934;2024-03-02T04:27:05;99870.41;;;13.22;65.92
75359;BME280;64046;51.978;5.934;2024-03-02T04:29:34;99872.31;;;13.20;66.23
75359;BME280;64046;51.978;5.934;2024-03-02T04:32:04;99880.75;;;13.25;66.29
75359;BME280;64046;51.978;5.934;2024-03-02T04:34:33;99875.69;;;13.22;66.09
75359;BME280;64046;51.978;5.934;2024-03-02T04:37:03;99876.44;;;13.24;65.94
75359;BME280;64046;51.978;5.934;2024-03-02T04:39:32;99882.84;;;13.20;65.85
75359;BME280;64046;51.978;5.934;2024-03-02T04:42:06;99885.56;;;13.31;66.05
75359;BME280;64046;51.978;5.934;2024-03-02T04:44:35;99894.00;;;13.11;66.44
75359;BME280;64046;51.978;5.934;2024-03-02T04:47:06;99892.34;;;13.10;66.77
75359;BME280;64046;51.978;5.934;2024-03-02T04:49:36;99891.69;;;13.06;66.89
75359;BME280;64046;51.978;5.934;2024-03-02T04:52:05;99892.75;;;13.04;67.05
75359;BME280;64046;51.978;5.934;2024-03-02T04:54:35;99892.34;;;12.97;67.30
75359;BME280;64046;51.978;5.934;2024-03-02T04:57:27;99903.78;;;13.09;67.10
75359;BME280;64046;51.978;5.934;2024-03-02T04:59:57;99896.56;;;12.87;67.76
75359;BME280;64046;51.978;5.934;2024-03-02T05:02:26;99899.38;;;12.84;68.05
75359;BME280;64046;51.978;5.934;2024-03-02T05:04:55;99902.44;;;12.77;68.22
75359;BME280;64046;51.978;5.934;2024-03-02T05:07:25;99907.81;;;12.76;68.48
75359;BME280;64046;51.978;5.934;2024-03-02T05:09:54;99911.25;;;12.76;68.55
75359;BME280;64046;51.978;5.934;2024-03-02T05:12:24;99911.47;;;12.73;68.75
75359;BME280;64046;51.978;5.934;2024-03-02T05:15:16;99914.88;;;12.88;68.59
75359;BME280;64046;51.978;5.934;2024-03-02T05:17:46;99916.94;;;12.70;68.82
75359;BME280;64046;51.978;5.934;2024-03-02T05:20:15;99904.84;;;12.68;68.92
75359;BME280;64046;51.978;5.934;2024-03-02T05:22:45;99913.69;;;12.67;68.89
75359;BME280;64046;51.978;5.934;2024-03-02T05:25:15;99920.72;;;12.66;68.91
75359;BME280;64046;51.978;5.934;2024-03-02T05:27:45;99911.16;;;12.65;68.90
75359;BME280;64046;51.978;5.934;2024-03-02T05:30:17;99915.38;;;12.80;68.38
75359;BME280;64046;51.978;5.934;2024-03-02T05:32:46;99915.06;;;12.59;68.83
75359;BME280;64046;51.978;5.934;2024-03-02T05:35:16;99915.78;;;12.61;68.65
75359;BME280;64046;51.978;5.934;2024-03-02T05:37:45;99918.41;;;12.61;68.64
75359;BME280;64046;51.978;5.934;2024-03-02T05:40:15;99921.59;;;12.67;68.49
75359;BME280;64046;51.978;5.934;2024-03-02T05:42:44;99914.53;;;12.67;68.34
75359;BME280;64046;51.978;5.934;2024-03-02T05:45:14;99927.56;;;12.69;68.21
75359;BME280;64046;51.978;5.934;2024-03-02T05:47:46;99926.22;;;12.89;67.50
75359;BME280;64046;51.978;5.934;2024-03-02T05:50:15;99924.63;;;12.73;67.57
75359;BME280;64046;51.978;5.934;2024-03-02T05:52:46;99929.78;;;12.75;67.29
75359;BME280;64046;51.978;5.934;2024-03-02T05:55:15;99931.78;;;12.71;67.07
75359;BME280;64046;51.978;5.934;2024-03-02T05:57:45;99934.81;;;12.65;67.18
75359;BME280;64046;51.978;5.934;2024-03-02T06:00:28;99940.72;;;12.69;66.94
75359;BME280;64046;51.978;5.934;2024-03-02T06:03:00;99941.66;;;12.80;66.57
75359;BME280;64046;51.978;5.934;2024-03-02T06:05:30;99945.41;;;12.63;66.67
75359;BME280;64046;51.978;5.934;2024-03-02T06:07:59;99946.38;;;12.62;66.42
75359;BME280;64046;51.978;5.934;2024-03-02T06:10:29;99943.75;;;12.62;66.41
75359;BME280;64046;51.978;5.934;2024-03-02T06:12:58;99951.75;;;12.61;66.55
75359;BME280;64046;51.978;5.934;2024-03-02T06:15:28;99950.88;;;12.60;66.36
75359;BME280;64046;51.978;5.934;2024-03-02T06:18:00;99949.13;;;12.61;66.38
75359;BME280;64046;51.978;5.934;2024-03-02T06:20:29;99951.53;;;12.64;66.15
75359;BME280;64046;51.978;5.934;2024-03-02T06:23:02;99952.47;;;12.63;66.14
75359;BME280;64046;51.978;5.934;2024-03-02T06:25:31;99956.69;;;12.66;65.88
75359;BME280;64046;51.978;5.934;2024-03-02T06:28:01;99961.09;;;12.65;65.87
75359;BME280;64046;51.978;5.934;2024-03-02T06:30:30;99975.41;;;12.61;65.86
75359;BME280;64046;51.978;5.934;2024-03-02T06:33:04;99964.50;;;12.80;65.35
75359;BME280;64046;51.978;5.934;2024-03-02T06:35:34;99967.31;;;12.64;65.77
75359;BME280;64046;51.978;5.934;2024-03-02T06:38:06;99975.00;;;12.80;65.44
75359;BME280;64046;51.978;5.934;2024-03-02T06:40:35;99965.19;;;12.69;65.42
75359;BME280;64046;51.978;5.934;2024-03-02T06:43:07;99973.09;;;12.69;65.36
75359;BME280;64046;51.978;5.934;2024-03-02T06:45:36;99975.59;;;12.71;65.40
75359;BME280;64046;51.978;5.934;2024-03-02T06:48:08;99981.09;;;12.93;64.91
75359;BME280;64046;51.978;5.934;2024-03-02T06:50:38;99976.25;;;12.74;65.01
75359;BME280;64046;51.978;5.934;2024-03-02T06:53:07;99978.88;;;12.74;65.00
75359;BME280;64046;51.978;5.934;2024-03-02T06:55:36;99983.41;;;12.72;65.12
75359;BME280;64046;51.978;5.934;2024-03-02T06:58:06;99979.09;;;12.71;65.10
75359;BME280;64046;51.978;5.934;2024-03-02T07:00:35;99981.94;;;12.68;65.23
75359;BME280;64046;51.978;5.934;2024-03-02T07:03:08;99980.78;;;12.72;65.49
75359;BME280;64046;51.978;5.934;2024-03-02T07:05:37;99988.13;;;12.67;65.68
75359;BME280;64046;51.978;5.934;2024-03-02T07:08:08;99991.78;;;12.64;65.62
75359;BME280;64046;51.978;5.934;2024-03-02T07:10:37;99996.22;;;12.64;65.71
75359;BME280;64046;51.978;5.934;2024-03-02T07:13:07;99994.41;;;12.64;65.85
75359;BME280;64046;51.978;5.934;2024-03-02T07:15:36;100000.34;;;12.68;65.70
75359;BME280;64046;51.978;5.934;2024-03-02T07:18:34;99994.78;;;12.86;65.31
75359;BME280;64046;51.978;5.934;2024-03-02T07:21:07;100002.97;;;12.68;65.71
75359;BME280;64046;51.978;5.934;2024-03-02T07:23:36;100005.88;;;12.63;65.83
75359;BME280;64046;51.978;5.934;2024-03-02T07:26:06;100012.72;;;12.66;65.82
75359;BME280;64046;51.978;5.934;2024-03-02T07:28:35;100014.41;;;12.67;65.87
75359;BME280;64046;51.978;5.934;2024-03-02T07:31:05;100016.09;;;12.68;65.28
75359;BME280;64046;51.978;5.934;2024-03-02T07:33:40;100015.06;;;12.84;65.12
75359;BME280;64046;51.978;5.934;2024-03-02T07:36:09;100024.81;;;12.69;65.14
75359;BME280;64046;51.978;5.934;2024-03-02T07:38:38;100019.47;;;12.70;64.61
75359;BME280;64046;51.978;5.934;2024-03-02T07:41:08;100029.25;;;12.68;64.56
75359;BME280;64046;51.978;5.934;2024-03-02T07:43:38;100036.50;;;12.77;64.49
75359;BME280;64046;51.978;5.934;2024-03-02T07:46:08;100024.50;;;12.73;64.43
75359;BME280;64046;51.978;5.934;2024-03-02T07:48:40;100025.53;;;12.71;64.51
75359;BME280;64046;51.978;5.934;2024-03-02T07:51:11;100032.41;;;12.73;64.39
75359;BME280;64046;51.978;5.934;2024-03-02T07:53:41;100022.53;;;12.77;64.30
75359;BME280;64046;51.978;5.934;2024-03-02T07:56:10;100037.16;;;12.81;64.55
75359;BME280;64046;51.978;5.934;2024-03-02T07:58:40;100036.84;;;12.86;64.38
75359;BME280;64046;51.978;5.934;2024-03-02T08:01:13;100025.31;;;13.01;64.28
75359;BME280;64046;51.978;5.934;2024-03-02T08:03:46;100027.53;;;13.07;64.29
75359;BME280;64046;51.978;5.934;2024-03-02T08:06:17;100038.75;;;12.96;64.38
75359;BME280;64046;51.978;5.934;2024-03-02T08:08:47;100032.88;;;12.93;64.65
75359;BME280;64046;51.978;5.934;2024-03-02T08:11:17;100032.66;;;12.96;64.61
75359;BME280;64046;51.978;5.934;2024-03-02T08:13:47;100041.09;;;13.01;64.58
75359;BME280;64046;51.978;5.934;2024-03-02T08:16:16;100032.06;;;13.05;64.60
75359;BME280;64046;51.978;5.934;2024-03-02T08:18:49;100039.00;;;13.19;64.30
75359;BME280;64046;51.978;5.934;2024-03-02T08:21:19;100038.34;;;13.03;64.60
75359;BME280;64046;51.978;5.934;2024-03-02T08:23:48;100041.28;;;13.11;64.57
75359;BME280;64046;51.978;5.934;2024-03-02T08:26:18;100038.78;;;13.22;64.05
75359;BME280;64046;51.978;5.934;2024-03-02T08:28:48;100034.78;;;13.29;63.63
75359;BME280;64046;51.978;5.934;2024-03-02T08:31:17;100033.56;;;13.35;63.32
75359;BME280;64046;51.978;5.934;2024-03-02T08:33:49;100034.09;;;13.53;62.85
75359;BME280;64046;51.978;5.934;2024-03-02T08:36:19;100027.91;;;13.41;62.90
75359;BME280;64046;51.978;5.934;2024-03-02T08:38:49;100034.63;;;13.45;62.30
75359;BME280;64046;51.978;5.934;2024-03-02T08:41:19;100041.56;;;13.46;62.19
75359;BME280;64046;51.978;5.934;2024-03-02T08:43:48;100042.72;;;13.55;61.80
75359;BME280;64046;51.978;5.934;2024-03-02T08:46:23;100041.75;;;13.82;60.94
75359;BME280;64046;51.978;5.934;2024-03-02T08:48:55;100046.56;;;13.88;60.63
75359;BME280;64046;51.978;5.934;2024-03-02T08:51:25;100034.28;;;13.76;60.13
75359;BME280;64046;51.978;5.934;2024-03-02T08:53:54;100043.00;;;13.76;59.75
75359;BME280;64046;51.978;5.934;2024-03-02T08:56:27;100055.53;;;13.98;59.32
75359;BME280;64046;51.978;5.934;2024-03-02T08:58:56;100049.94;;;13.90;59.40
75359;BME280;64046;51.978;5.934;2024-03-02T09:01:26;100042.84;;;14.04;59.01
75359;BME280;64046;51.978;5.934;2024-03-02T09:03:58;100052.19;;;14.21;58.44
75359;BME280;64046;51.978;5.934;2024-03-02T09:06:27;100055.91;;;14.05;58.14
75359;BME280;64046;51.978;5.934;2024-03-02T09:08:57;100059.91;;;14.11;57.76
75359;BME280;64046;51.978;5.934;2024-03-02T09:11:26;100056.50;;;14.22;57.25
75359;BME280;64046;51.978;5.934;2024-03-02T09:13:55;100068.72;;;14.23;56.83
75359;BME280;64046;51.978;5.934;2024-03-02T09:16:25;100057.88;;;14.27;56.69
75359;BME280;64046;51.978;5.934;2024-03-02T09:19:00;100058.94;;;14.49;56.03
75359;BME280;64046;51.978;5.934;2024-03-02T09:21:32;100050.13;;;14.37;56.04
75359;BME280;64046;51.978;5.934;2024-03-02T09:24:01;100042.50;;;14.45;55.67
75359;BME280;64046;51.978;5.934;2024-03-02T09:26:34;100042.44;;;14.58;55.01
75359;BME280;64046;51.978;5.934;2024-03-02T09:29:03;100061.16;;;14.42;54.63
75359;BME280;64046;51.978;5.934;2024-03-02T09:31:32;100063.69;;;14.44;54.68
75359;BME280;64046;51.978;5.934;2024-03-02T09:34:04;100051.50;;;14.67;54.11
75359;BME280;64046;51.978;5.934;2024-03-02T09:36:34;100051.63;;;14.52;53.72
75359;BME280;64046;51.978;5.934;2024-03-02T09:39:03;100065.78;;;14.51;53.91
75359;BME280;64046;51.978;5.934;2024-03-02T09:41:33;100060.66;;;14.61;53.48
75359;BME280;64046;51.978;5.934;2024-03-02T09:44:03;100052.34;;;14.67;53.36
75359;BME280;64046;51.978;5.934;2024-03-02T09:46:32;100055.47;;;14.73;53.38
75359;BME280;64046;51.978;5.934;2024-03-02T09:49:05;100055.66;;;14.94;53.01
75359;BME280;64046;51.978;5.934;2024-03-02T09:51:35;100056.25;;;14.86;52.96
75359;BME280;64046;51.978;5.934;2024-03-02T09:54:07;100052.09;;;14.95;52.83
75359;BME280;64046;51.978;5.934;2024-03-02T09:56:37;100044.25;;;14.82;52.73
75359;BME280;64046;51.978;5.934;2024-03-02T09:59:06;100045.47;;;14.89;52.64
75359;BME280;64046;51.978;5.934;2024-03-02T10:01:35;100046.31;;;14.90;52.56
75359;BME280;64046;51.978;5.934;2024-03-02T10:04:08;100054.91;;;15.16;52.17
75359;BME280;64046;51.978;5.934;2024-03-02T10:06:38;100055.81;;;15.03;52.10
75359;BME280;64046;51.978;5.934;2024-03-02T10:09:07;100046.84;;;15.06;51.73
75359;BME280;64046;51.978;5.934;2024-03-02T10:11:36;100046.59;;;15.09;51.71
75359;BME280;64046;51.978;5.934;2024-03-02T10:14:07;100051.44;;;15.27;51.54
75359;BME280;64046;51.978;5.934;2024-03-02T10:16:38;100055.66;;;15.29;51.45
75359;BME280;64046;51.978;5.934;2024-03-02T10:19:21;100059.03;;;15.54;50.79
75359;BME280;64046;51.978;5.934;2024-03-02T10:21:54;100049.19;;;15.45;51.05
75359;BME280;64046;51.978;5.934;2024-03-02T10:24:24;100055.41;;;15.32;50.73
75359;BME280;64046;51.978;5.934;2024-03-02T10:26:53;100056.84;;;15.36;50.55
75359;BME280;64046;51.978;5.934;2024-03-02T10:29:23;100048.56;;;15.41;50.46
75359;BME280;64046;51.978;5.934;2024-03-02T10:31:54;100047.63;;;15.53;50.28
75359;BME280;64046;51.978;5.934;2024-03-02T10:34:27;100046.22;;;15.72;49.49
75359;BME280;64046;51.978;5.934;2024-03-02T10:36:57;100045.00;;;15.53;49.78
75359;BME280;64046;51.978;5.934;2024-03-02T10:39:28;100043.44;;;15.62;49.32
75359;BME280;64046;51.978;5.934;2024-03-02T10:41:58;100049.44;;;15.64;49.23
75359;BME280;64046;51.978;5.934;2024-03-02T10:44:30;100044.28;;;15.74;48.67
75359;BME280;64046;51.978;5.934;2024-03-02T10:47:01;100037.31;;;15.73;48.76
75359;BME280;64046;51.978;5.934;2024-03-02T10:49:34;100040.59;;;15.88;48.55
75359;BME280;64046;51.978;5.934;2024-03-02T10:52:04;100020.03;;;15.80;48.33
75359;BME280;64046;51.978;5.934;2024-03-02T10:54:35;100017.84;;;15.74;48.05
75359;BME280;64046;51.978;5.934;2024-03-02T10:57:07;100016.44;;;15.93;48.03
75359;BME280;64046;51.978;5.934;2024-03-02T10:59:44;100022.06;;;16.11;48.06
75359;BME280;64046;51.978;5.934;2024-03-02T11:02:21;100014.84;;;16.13;48.18
75359;BME280;64046;51.978;5.934;2024-03-02T11:04:55;100018.91;;;16.17;47.40
75359;BME280;64046;51.978;5.934;2024-03-02T11:07:25;100025.19;;;16.04;47.59
75359;BME280;64046;51.978;5.934;2024-03-02T11:09:59;100019.03;;;16.15;47.37
75359;BME280;64046;51.978;5.934;2024-03-02T11:12:38;100025.03;;;16.17;47.38
75359;BME280;64046;51.978;5.934;2024-03-02T11:15:10;100019.75;;;16.17;47.23
75359;BME280;64046;51.978;5.934;2024-03-02T11:17:40;100022.19;;;16.09;47.32
75359;BME280;64046;51.978;5.934;2024-03-02T11:20:13;100018.66;;;16.20;47.02
75359;BME280;64046;51.978;5.934;2024-03-02T11:22:45;100026.50;;;15.99;47.17
75359;BME280;64046;51.978;5.934;2024-03-02T11:25:25;100015.88;;;16.33;46.82
75359;BME280;64046;51.978;5.934;2024-03-02T11:28:02;100015.59;;;16.36;46.59
75359;BME280;64046;51.978;5.934;2024-03-02T11:30:50;100008.72;;;16.44;46.38
75359;BME280;64046;51.978;5.934;2024-03-02T11:33:23;100009.75;;;16.32;46.35
75359;BME280;64046;51.978;5.934;2024-03-02T11:35:58;100013.47;;;16.30;46.56
75359;BME280;64046;51.978;5.934;2024-03-02T11:38:29;100012.16;;;16.24;46.49
75359;BME280;64046;51.978;5.934;2024-03-02T11:41:00;100015.38;;;16.27;46.63
75359;BME280;64046;51.978;5.934;2024-03-02T11:43:30;100013.72;;;16.26;46.77
75359;BME280;64046;51.978;5.934;2024-03-02T11:46:00;100018.25;;;16.36;46.85
75359;BME280;64046;51.978;5.934;2024-03-02T11:48:30;100008.31;;;16.28;46.73
75359;BME280;64046;51.978;5.934;2024-03-02T11:51:04;99999.97;;;16.44;46.15
75359;BME280;64046;51.978;5.934;2024-03-02T11:53:35;100007.19;;;16.42;46.00
75359;BME280;64046;51.978;5.934;2024-03-02T11:56:09;100000.22;;;16.41;45.95
75359;BME280;64046;51.978;5.934;2024-03-02T11:58:40;99999.13;;;16.43;45.67
75359;BME280;64046;51.978;5.934;2024-03-02T12:01:10;99995.28;;;16.48;45.50
75359;BME280;64046;51.978;5.934;2024-03-02T12:03:41;99995.47;;;16.56;45.09
75359;BME280;64046;51.978;5.934;2024-03-02T12:06:13;99997.31;;;16.76;45.08
75359;BME280;64046;51.978;5.934;2024-03-02T12:08:44;99986.72;;;16.76;44.80
75359;BME280;64046;51.978;5.934;2024-03-02T12:11:13;99990.50;;;16.63;44.87
75359;BME280;64046;51.978;5.934;2024-03-02T12:13:52;99980.28;;;16.90;44.18
75359;BME280;64046;51.978;5.934;2024-03-02T12:16:25;99971.81;;;16.75;44.20
75359;BME280;64046;51.978;5.934;2024-03-02T12:18:55;99977.63;;;16.69;43.93
75359;BME280;64046;51.978;5.934;2024-03-02T12:21:27;99970.88;;;16.86;43.98
75359;BME280;64046;51.978;5.934;2024-03-02T12:23:56;99968.56;;;16.72;43.94
75359;BME280;64046;51.978;5.934;2024-03-02T12:26:26;99969.59;;;16.59;43.27
75359;BME280;64046;51.978;5.934;2024-03-02T12:28:55;99956.63;;;16.77;42.83
75359;BME280;64046;51.978;5.934;2024-03-02T12:31:24;99961.16;;;16.87;42.75
75359;BME280;64046;51.978;5.934;2024-03-02T12:33:54;99965.69;;;16.96;42.45
75359;BME280;64046;51.978;5.934;2024-03-02T12:36:26;99964.41;;;16.90;41.99
75359;BME280;64046;51.978;5.934;2024-03-02T12:38:56;99969.94;;;16.87;41.95
75359;BME280;64046;51.978;5.934;2024-03-02T12:41:25;99971.16;;;16.83;41.94
75359;BME280;64046;51.978;5.934;2024-03-02T12:43:54;99966.59;;;16.85;42.17
75359;BME280;64046;51.978;5.934;2024-03-02T12:46:24;99965.41;;;16.89;42.09
75359;BME280;64046;51.978;5.934;2024-03-02T12:48:54;99961.44;;;16.84;42.21
75359;BME280;64046;51.978;5.934;2024-03-02T12:51:23;99959.09;;;16.90;42.08
75359;BME280;64046;51.978;5.934;2024-03-02T12:53:59;99953.84;;;17.21;41.70
75359;BME280;64046;51.978;5.934;2024-03-02T12:56:29;99949.72;;;17.07;42.07
75359;BME280;64046;51.978;5.934;2024-03-02T12:58:59;99947.13;;;17.17;41.91
75359;BME280;64046;51.978;5.934;2024-03-02T13:01:29;99949.38;;;17.22;42.05
75359;BME280;64046;51.978;5.934;2024-03-02T13:03:59;99941.34;;;17.33;42.46
75359;BME280;64046;51.978;5.934;2024-03-02T13:06:28;99942.91;;;17.36;42.56
75359;BME280;64046;51.978;5.934;2024-03-02T13:09:00;99947.72;;;17.61;42.52
75359;BME280;64046;51.978;5.934;2024-03-02T13:11:29;99947.84;;;17.50;42.79
75359;BME280;64046;51.978;5.934;2024-03-02T13:14:01;99934.66;;;17.70;42.89
75359;BME280;64046;51.978;5.934;2024-03-02T13:16:31;99942.25;;;17.53;42.98